D/T METAR WX W/DIR W/SPE G/SPE TEMP DEWP
19/03/19 19:50 EGDX 191950Z AUTO 27008KT 9999 BKN010/// 09/08 Q1029 W (270°) 9.2mph 9°C 8°C
19/03/19 18:50 EGDX 191850Z AUTO 28009KT 9999 SCT013/// BKN022/// 09/07 Q1029 W (280°) 10.4mph 9°C 7°C
19/03/19 17:50 EGDX 191750Z AUTO 29009KT 9999 BKN019/// BKN060/// 10/07 Q1029 WNW (290°) 10.4mph 10°C 7°C
19/03/19 16:50 EGDX 191650Z AUTO 28009KT 9999 SCT037/// BKN042/// 10/07 Q1028 W (280°) 10.4mph 10°C 7°C
19/03/19 15:50 EGDX 191550Z 27010KT 9999 SCT010 BKN048 10/07 Q1027 GRN W (270°) 11.5mph 10°C 7°C
19/03/19 14:50 EGDX 191450Z AUTO 27010KT 9999 FEW010/// BKN070/// 10/08 Q1027 W (270°) 11.5mph 10°C 8°C
19/03/19 13:50 EGDX 191350Z AUTO 28013KT 9999 FEW010/// BKN080/// 11/07 Q1028 W (280°) 15.0mph 11°C 7°C
19/03/19 12:50 EGDX 191250Z AUTO 27011KT 9999 BKN008/// SCT130/// 11/08 Q1028 W (270°) 12.7mph 11°C 8°C
19/03/19 11:50 EGDX 191150Z 25008KT 9999 FEW010 12/08 Q1027 BLU WSW (250°) 9.2mph 12°C 8°C
19/03/19 10:50 EGDX 191050Z 26008KT 9999 SCT005 BKN027 10/08 Q1027 YLO1 W (260°) 9.2mph 10°C 8°C
19/03/19 09:50 EGDX 190950Z 27007KT 7000 BR BKN005 OVC027 09/09 Q1027 YLO1 BR W (270°) 8.1mph 9°C 9°C
19/03/19 08:50 EGDX 190850Z AUTO 24006KT 7000 BR SCT003/// BKN025/// 09/08 Q1027 BR WSW (240°) 6.9mph 9°C 8°C
19/03/19 07:50 EGDX 190750Z AUTO 27004KT 9000 BR SCT002/// SCT016/// BKN023/// 08/08 Q1026 BR W (270°) 4.6mph 8°C 8°C
19/03/19 06:50 EGDX 190650Z AUTO 26004KT 2800 BKN001/// OVC050/// 08/08 Q1026 W (260°) 4.6mph 8°C 8°C
19/03/19 05:50 EGDX 190550Z AUTO 28003KT 4000 BR BKN002/// OVC050/// 08/08 Q1025 BR W (280°) 3.5mph 8°C 8°C
19/03/19 04:50 EGDX 190450Z AUTO 28004KT 1800 BR OVC002/// 08/08 Q1025 BR W (280°) 4.6mph 8°C 8°C
19/03/19 03:50 EGDX 190350Z AUTO 27004KT 5000 BR BKN002/// BKN060/// 08/08 Q1025 BR W (270°) 4.6mph 8°C 8°C
19/03/19 02:50 EGDX 190250Z AUTO 26004KT 6000 BR BKN002/// BKN011/// 08/08 Q1025 BR W (260°) 4.6mph 8°C 8°C
19/03/19 01:50 EGDX 190150Z AUTO 24005KT 9000 BR OVC009/// 08/07 Q1025 BR WSW (240°) 5.8mph 8°C 7°C
19/03/19 00:50 EGDX 190050Z AUTO 28003KT 9999 OVC007/// 08/08 Q1025 W (280°) 3.5mph 8°C 8°C
18/03/19 23:50 EGDX 182350Z AUTO 27004KT 9999 FEW004/// BKN008/// 08/08 Q1024 W (270°) 4.6mph 8°C 8°C
18/03/19 22:50 EGDX 182250Z AUTO 27006KT 9999 BKN004/// SCT011/// BKN035/// 08/08 Q1024 W (270°) 6.9mph 8°C 8°C
18/03/19 21:50 EGDX 182150Z AUTO 27004KT 9999 OVC035/// 08/07 Q1024 W (270°) 4.6mph 8°C 7°C
18/03/19 20:50 EGDX 182050Z AUTO 28007KT 9999 FEW022/// BKN035/// 08/07 Q1024 W (280°) 8.1mph 8°C 7°C
18/03/19 19:50 EGDX 181950Z AUTO 28007KT 9999 FEW029/// 08/07 Q1023 W (280°) 8.1mph 8°C 7°C
18/03/19 18:50 EGDX 181850Z AUTO 27007KT 9000 BR SCT027/// BKN036/// 08/07 Q1023 REUP BR W (270°) 8.1mph 8°C 7°C
18/03/19 17:50 EGDX 181750Z AUTO 28012KT 9999 SCT006/// BKN021/// 08/07 Q1022 W (280°) 13.8mph 8°C 7°C
18/03/19 16:50 EGDX 181650Z AUTO 28012KT 9999 BKN005/// BKN013/// 08/07 Q1022 REDZ W (280°) 13.8mph 8°C 7°C
18/03/19 15:50 EGDX 181550Z AUTO 28016KT 9999 BKN007/// BKN015/// 09/07 Q1021 RERA W (280°) 18.4mph 9°C 7°C
18/03/19 14:50 EGDX 181450Z 28015KT 9999 -SHRA SCT010 BKN017 08/07 Q1021 GRN -SHRA W (280°) 17.3mph 8°C 7°C
18/03/19 13:50 EGDX 181350Z AUTO 27012KT 9999 FEW008/// BKN014/// 08/06 Q1021 RERA W (270°) 13.8mph 8°C 6°C
18/03/19 12:50 EGDX 181250Z AUTO 27012KT 9999 SCT011/// BKN019/// 08/06 Q1022 REUP W (270°) 13.8mph 8°C 6°C
18/03/19 11:50 EGDX 181150Z AUTO 28012KT 4900 UP BKN013/// SCT023/// 08/06 Q1022 UP W (280°) 13.8mph 8°C 6°C
18/03/19 10:50 EGDX 181050Z AUTO 28011KT 9999 -RA SCT024/// BKN080/// 08/05 Q1022 -RA W (280°) 12.7mph 8°C 5°C
18/03/19 09:50 EGDX 180950Z AUTO 29009KT 9999 -RA BKN030/// BKN050/// 07/05 Q1022 -RA WNW (290°) 10.4mph 7°C 5°C
18/03/19 08:50 EGDX 180850Z AUTO 30010KT 9999 -RA BKN050/// 07/05 Q1021 -RA WNW (300°) 11.5mph 7°C 5°C
18/03/19 07:50 EGDX 180750Z AUTO 29008KT 9999 SCT070/// BKN130/// 07/05 Q1021 WNW (290°) 9.2mph 7°C 5°C
18/03/19 06:50 EGDX 180650Z AUTO 30008KT 9999 FEW050/// BKN140/// 06/04 Q1020 WNW (300°) 9.2mph 6°C 4°C
18/03/19 05:50 EGDX 180550Z AUTO 30008KT 9999 FEW020/// BKN150/// BKN200/// 06/04 Q1020 WNW (300°) 9.2mph 6°C 4°C
18/03/19 04:50 EGDX 180450Z AUTO 29009KT 9999 FEW060/// BKN140/// 06/04 Q1020 WNW (290°) 10.4mph 6°C 4°C
18/03/19 03:50 EGDX 180350Z AUTO 29009KT 9999 BKN140/// BKN180/// 06/04 Q1019 WNW (290°) 10.4mph 6°C 4°C
18/03/19 02:50 EGDX 180250Z AUTO 30011KT 9999 BKN140/// 06/04 Q1019 WNW (300°) 12.7mph 6°C 4°C
18/03/19 01:50 EGDX 180150Z AUTO 30005KT 9999 FEW150/// 06/04 Q1018 WNW (300°) 5.8mph 6°C 4°C
18/03/19 00:50 EGDX 180050Z AUTO 31010KT 9999 FEW027/// 07/03 Q1018 NW (310°) 11.5mph 7°C 3°C
17/03/19 23:50 EGDX 172350Z AUTO 31011KT 9999 NCD 06/03 Q1017 NW (310°) 12.7mph 6°C 3°C
17/03/19 22:50 EGDX 172250Z AUTO 29009KT 9999 NCD 07/04 Q1017 WNW (290°) 10.4mph 7°C 4°C
17/03/19 21:50 EGDX 172150Z AUTO 30012KT 9999 NCD 07/04 Q1016 WNW (300°) 13.8mph 7°C 4°C
17/03/19 20:50 EGDX 172050Z AUTO 31009KT 9999 NCD 07/05 Q1015 NW (310°) 10.4mph 7°C 5°C
17/03/19 19:50 EGDX 171950Z AUTO 30011KT 9999 NCD 07/05 Q1014 WNW (300°) 12.7mph 7°C 5°C
17/03/19 18:50 EGDX 171850Z AUTO 30007KT 9999 NCD 06/04 Q1013 REUP WNW (300°) 8.1mph 6°C 4°C
17/03/19 17:50 EGDX 171750Z AUTO 31017G27KT 1900 UP SCT024/// 06/04 Q1011 UP NW (310°) 19.6mph 31.1mph 6°C 4°C
17/03/19 16:50 EGDX 171650Z AUTO 28018KT 9999 UP SCT026/// 08/06 Q1010 UP W (280°) 20.7mph 8°C 6°C
17/03/19 15:50 EGDX 171550Z AUTO 28020KT 9999 FEW023/// BKN044/// 07/04 Q1009 REUP W (280°) 23.0mph 7°C 4°C
17/03/19 14:50 EGDX 171450Z AUTO 28017KT 9999 UP FEW029/// SCT034/// 07/02 Q1009 UP W (280°) 19.6mph 7°C 2°C
17/03/19 13:50 EGDX 171350Z AUTO 27019KT 9999 FEW020/// 09/03 Q1008 W (270°) 21.9mph 9°C 3°C
17/03/19 12:50 EGDX 171250Z AUTO 27018KT 9999 FEW023/// 08/03 Q1008 W (270°) 20.7mph 8°C 3°C
17/03/19 11:50 EGDX 171150Z AUTO 28019KT 9999 FEW027/// 08/02 Q1008 W (280°) 21.9mph 8°C 2°C
17/03/19 10:50 EGDX 171050Z AUTO 28016KT 9999 FEW027/// 07/01 Q1007 W (280°) 18.4mph 7°C 1°C
17/03/19 09:50 EGDX 170950Z AUTO 29016KT 9999 FEW027/// 07/01 Q1006 WNW (290°) 18.4mph 7°C 1°C
17/03/19 08:50 EGDX 170850Z AUTO 29017KT 9999 NCD 06/00 Q1005 WNW (290°) 19.6mph 6°C 0°C
17/03/19 07:50 EGDX 170750Z AUTO 29013KT 9999 NCD 05/01 Q1004 WNW (290°) 15.0mph 5°C 1°C
17/03/19 06:50 EGDX 170650Z AUTO 30010KT 9999 FEW021/// 04/01 Q1003 WNW (300°) 11.5mph 4°C 1°C
17/03/19 05:50 EGDX 170550Z AUTO 30012KT 9999 FEW019/// 04/02 Q1003 WNW (300°) 13.8mph 4°C 2°C
17/03/19 04:50 EGDX 170450Z AUTO 30012KT 9999 FEW020/// 05/02 Q1002 WNW (300°) 13.8mph 5°C 2°C
17/03/19 03:50 EGDX 170350Z AUTO 30013KT 9999 FEW020/// 05/02 Q1001 REUP WNW (300°) 15.0mph 5°C 2°C
17/03/19 02:50 EGDX 170250Z AUTO 29014KT 9999 UP FEW047/// 05/02 Q1000 UP WNW (290°) 16.1mph 5°C 2°C
17/03/19 01:50 EGDX 170150Z AUTO 30014KT 9999 FEW060/// 06/02 Q1000 WNW (300°) 16.1mph 6°C 2°C
17/03/19 00:50 EGDX 170050Z AUTO 29015KT 9999 FEW041/// BKN080/// 06/03 Q0999 WNW (290°) 17.3mph 6°C 3°C
16/03/19 23:50 EGDX 162350Z AUTO 29016KT 9999 SCT020/// SCT025/// 07/03 Q0998 WNW (290°) 18.4mph 7°C 3°C
16/03/19 22:50 EGDX 162250Z AUTO 29016KT 9999 BKN018/// 07/03 Q0998 REUP WNW (290°) 18.4mph 7°C 3°C
16/03/19 21:50 EGDX 162150Z AUTO 29017KT 9999 FEW060/// 07/04 Q0997 REUP WNW (290°) 19.6mph 7°C 4°C
16/03/19 20:50 EGDX 162050Z AUTO 26017KT 9999 FEW008/// SCT020/// 07/06 Q0996 RERA W (260°) 19.6mph 7°C 6°C
16/03/19 19:50 EGDX 161950Z AUTO 28016KT 5000 RA BKN013/// BKN042/// 07/06 Q0996 RA W (280°) 18.4mph 7°C 6°C
16/03/19 18:50 EGDX 161850Z AUTO 25017KT 7000 RA FEW007/// BKN034/// 08/08 Q0995 RA WSW (250°) 19.6mph 8°C 8°C
16/03/19 17:50 EGDX 161750Z AUTO 26019KT 3400 RA SCT005/// BKN037/// 09/08 Q0995 RA W (260°) 21.9mph 9°C 8°C
16/03/19 16:50 EGDX 161650Z AUTO 23023KT 4300 RA BKN016/// SCT028/// 10/08 Q0995 RA SW (230°) 26.5mph 10°C 8°C
16/03/19 15:50 EGDX 161550Z AUTO 22020KT 4300 -RA BKN016/// SCT023/// 10/08 Q0996 -RA SW (220°) 23.0mph 10°C 8°C
16/03/19 14:50 EGDX 161450Z AUTO 22016KT 9999 -RA OVC014/// 10/08 Q0997 -RA SW (220°) 18.4mph 10°C 8°C
16/03/19 13:50 EGDX 161350Z AUTO 22019KT 9000 OVC021/// 10/08 Q0998 SW (220°) 21.9mph 10°C 8°C
16/03/19 12:50 EGDX 161250Z AUTO 23021KT 9999 OVC026/// 11/07 Q1000 SW (230°) 24.2mph 11°C 7°C
16/03/19 11:50 EGDX 161150Z AUTO 23023KT 9999 BKN025/// 11/07 Q1001 SW (230°) 26.5mph 11°C 7°C
16/03/19 10:50 EGDX 161050Z AUTO 24023KT 9999 BKN024/// BKN034/// 11/07 Q1002 WSW (240°) 26.5mph 11°C 7°C
16/03/19 09:50 EGDX 160950Z AUTO 24025G36KT 9999 BKN025/// 11/07 Q1003 WSW (240°) 28.8mph 41.4mph 11°C 7°C
16/03/19 08:50 EGDX 160850Z AUTO 25024G34KT 9999 FEW016/// SCT021/// BKN027/// 10/07 Q1003 RERA WSW (250°) 27.6mph 39.1mph 10°C 7°C
16/03/19 07:50 EGDX 160750Z AUTO 25024KT 9999 OVC022/// 10/07 Q1004 RERA WSW (250°) 27.6mph 10°C 7°C
16/03/19 06:50 EGDX 160650Z AUTO 25025G35KT 9999 OVC021/// 10/07 Q1004 WSW (250°) 28.8mph 40.3mph 10°C 7°C
16/03/19 05:50 EGDX 160550Z AUTO 25022KT 9999 BKN017/// BKN026/// 10/08 Q1005 WSW (250°) 25.3mph 10°C 8°C
16/03/19 04:50 EGDX 160450Z AUTO 25023KT 9999 OVC012/// 10/08 Q1006 WSW (250°) 26.5mph 10°C 8°C
16/03/19 03:50 EGDX 160350Z AUTO 25022KT 9999 OVC010/// 10/08 Q1006 REDZ WSW (250°) 25.3mph 10°C 8°C
16/03/19 02:50 EGDX 160250Z AUTO 24021KT 9000 DZ OVC008/// 10/09 Q1007 DZ WSW (240°) 24.2mph 10°C 9°C
16/03/19 01:50 EGDX 160150Z AUTO 24019G30KT 9000 HZ OVC009/// 10/09 Q1008 HZ WSW (240°) 21.9mph 34.5mph 10°C 9°C
16/03/19 00:50 EGDX 160050Z AUTO 25023G33KT 9000 BR OVC007/// 10/09 Q1008 REDZ BR WSW (250°) 26.5mph 38.0mph 10°C 9°C
15/03/19 23:50 EGDX 152350Z AUTO 24024KT 9999 OVC008/// 10/09 Q1009 REDZ WSW (240°) 27.6mph 10°C 9°C
15/03/19 22:50 EGDX 152250Z AUTO 25024G34KT 9000 HZ FEW006/// OVC009/// 10/09 Q1009 HZ WSW (250°) 27.6mph 39.1mph 10°C 9°C
15/03/19 21:50 EGDX 152150Z AUTO 25021KT 6000 BR OVC002/// 10/10 Q1010 REDZ BR WSW (250°) 24.2mph 10°C 10°C
15/03/19 20:50 EGDX 152050Z AUTO 27013KT 1000 DZ OVC001/// 09/09 Q1010 DZ W (270°) 15.0mph 9°C 9°C
15/03/19 19:50 EGDX 151950Z AUTO 27013KT 1700 UP OVC002/// 09/09 Q1010 UP W (270°) 15.0mph 9°C 9°C
15/03/19 18:50 EGDX 151850Z AUTO 27016KT 2000 UP BKN002/// BKN017/// 09/09 Q1010 UP W (270°) 18.4mph 9°C 9°C
15/03/19 17:50 EGDX 151750Z AUTO 27016KT 4800 DZ OVC002/// 09/09 Q1010 DZ W (270°) 18.4mph 9°C 9°C
15/03/19 16:50 EGDX 151650Z AUTO 28018KT 2000 RA BKN002/// SCT012/// 09/09 Q1010 RA W (280°) 20.7mph 9°C 9°C
15/03/19 15:50 EGDX 151550Z AUTO 28016KT 2300 RA BKN002/// BKN017/// 09/09 Q1010 RA W (280°) 18.4mph 9°C 9°C
15/03/19 14:50 EGDX 151450Z AUTO 29017KT 2300 RA SCT003/// BKN017/// 09/08 Q1010 RA WNW (290°) 19.6mph 9°C 8°C
15/03/19 13:50 EGDX 151350Z AUTO 28017KT 3300 RA BKN002/// SCT012/// 09/09 Q1010 RA W (280°) 19.6mph 9°C 9°C
15/03/19 12:50 EGDX 151250Z AUTO 26026G36KT 1700 RA OVC002/// 10/10 Q1009 RA W (260°) 29.9mph 41.4mph 10°C 10°C
15/03/19 11:50 EGDX 151150Z AUTO 26024G35KT 1600 RA OVC002/// 10/10 Q1009 RA W (260°) 27.6mph 40.3mph 10°C 10°C
15/03/19 10:50 EGDX 151050Z AUTO 26025G35KT 1400 RA OVC002/// 10/10 Q1009 RA W (260°) 28.8mph 40.3mph 10°C 10°C
15/03/19 09:50 EGDX 150950Z AUTO 26024KT 1400 RA OVC002/// 10/10 Q1009 RA W (260°) 27.6mph 10°C 10°C
15/03/19 08:50 EGDX 150850Z AUTO 26021KT 1900 DZ OVC002/// 10/10 Q1009 DZ W (260°) 24.2mph 10°C 10°C
15/03/19 07:50 EGDX 150750Z AUTO 27023G34KT 4300 DZ OVC003/// 10/10 Q1008 DZ W (270°) 26.5mph 39.1mph 10°C 10°C
15/03/19 06:50 EGDX 150650Z AUTO 27023G34KT 3600 BR OVC003/// 10/10 Q1007 RERA BR W (270°) 26.5mph 39.1mph 10°C 10°C
15/03/19 05:50 EGDX 150550Z AUTO 27026G37KT 2300 RA OVC003/// 10/10 Q1007 RA W (270°) 29.9mph 42.6mph 10°C 10°C
15/03/19 04:50 EGDX 150450Z AUTO 27026G39KT 2700 BR OVC004/// 10/09 Q1007 BR W (270°) 29.9mph 44.9mph 10°C 9°C
15/03/19 03:50 EGDX 150350Z AUTO 27027G41KT 7000 HZ BKN007/// OVC014/// 10/09 Q1006 HZ W (270°) 31.1mph 47.2mph 10°C 9°C
15/03/19 02:50 EGDX 150250Z AUTO 27025G40KT 7000 HZ OVC007/// 10/09 Q1007 HZ W (270°) 28.8mph 46.0mph 10°C 9°C
15/03/19 01:50 EGDX 150150Z AUTO 27030G44KT 6000 HZ OVC006/// 11/09 Q1006 HZ W (270°) 34.5mph 50.6mph 11°C 9°C
15/03/19 00:50 EGDX 150050Z AUTO 27026G40KT 6000 BR OVC005/// 10/09 Q1007 REDZ BR W (270°) 29.9mph 46.0mph 10°C 9°C
14/03/19 23:50 EGDX 142350Z AUTO 27025G37KT 5000 BR OVC003/// 10/09 Q1007 REUP BR W (270°) 28.8mph 42.6mph 10°C 9°C
14/03/19 22:50 EGDX 142250Z AUTO 27022G34KT 3000 UP OVC003/// 10/09 Q1008 UP W (270°) 25.3mph 39.1mph 10°C 9°C
14/03/19 21:50 EGDX 142150Z AUTO 27019G29KT 6000 BR OVC002/// 10/10 Q1008 REUP BR W (270°) 21.9mph 33.4mph 10°C 10°C
14/03/19 20:50 EGDX 142050Z AUTO 27017KT 0900 UP BKN002/// 10/09 Q1008 UP W (270°) 19.6mph 10°C 9°C
14/03/19 19:50 EGDX 141950Z AUTO 27017KT 9999 BKN022/// SCT060/// 10/09 Q1009 W (270°) 19.6mph 10°C 9°C
14/03/19 18:50 EGDX 141850Z AUTO 27019G29KT 9999 BKN050/// 10/08 Q1009 W (270°) 21.9mph 33.4mph 10°C 8°C
14/03/19 17:50 EGDX 141750Z AUTO 28018G28KT 9999 FEW008/// BKN060/// 10/08 Q1008 W (280°) 20.7mph 32.2mph 10°C 8°C
14/03/19 16:50 EGDX 141650Z AUTO 28016KT 9999 FEW007/// BKN100/// 10/08 Q1008 W (280°) 18.4mph 10°C 8°C
14/03/19 15:50 EGDX 141550Z AUTO 27017KT 9999 FEW008/// 10/08 Q1008 W (270°) 19.6mph 10°C 8°C
14/03/19 14:50 EGDX 141450Z AUTO 27019G31KT 9999 FEW007/// 11/08 Q1008 W (270°) 21.9mph 35.7mph 11°C 8°C
14/03/19 13:50 EGDX 141350Z AUTO 27019G29KT 9999 NCD 10/08 Q1007 W (270°) 21.9mph 33.4mph 10°C 8°C
14/03/19 12:50 EGDX 141250Z 27019G32KT 9999 FEW006 BKN050 BKN150 10/09 Q1007 BLU W (270°) 21.9mph 36.8mph 10°C 9°C
14/03/19 11:50 EGDX 141150Z 28021KT 9999 SCT006 BKN050 10/09 Q1006 YLO1 W (280°) 24.2mph 10°C 9°C
14/03/19 10:50 EGDX 141050Z 27022G32KT 6000 RADZ BKN006 BKN014 10/09 Q1006 YLO1 RA DZ W (270°) 25.3mph 36.8mph 10°C 9°C
14/03/19 09:50 EGDX 140950Z 27024G35KT 7000 -SHRA BKN006 BKN014 10/09 Q1005 YLO1 -SHRA W (270°) 27.6mph 40.3mph 10°C 9°C
14/03/19 08:50 EGDX 140850Z 27023G33KT 7000 SHRA OVC006 10/09 Q1006 YLO1 SHRA W (270°) 26.5mph 38.0mph 10°C 9°C
14/03/19 08:17 EGDX 140817Z 26024G34KT 7000 SHRA OVC006 10/09 Q1005 YLO1 SHRA W (260°) 27.6mph 39.1mph 10°C 9°C
14/03/19 07:50 EGDX 140750Z AUTO 26025G37KT 6000 BR OVC003/// 09/09 Q1005 RERA BR W (260°) 28.8mph 42.6mph 9°C 9°C
14/03/19 06:50 EGDX 140650Z AUTO 26027G40KT 1200 RA OVC002/// 09/09 Q1005 RA W (260°) 31.1mph 46.0mph 9°C 9°C
14/03/19 05:50 EGDX 140550Z AUTO 26026KT 1300 RA BKN003/// 09/08 Q1006 RA W (260°) 29.9mph 9°C 8°C
14/03/19 04:50 EGDX 140450Z AUTO 26026G39KT 2700 RA OVC007/// 09/08 Q1007 RA W (260°) 29.9mph 44.9mph 9°C 8°C
14/03/19 03:50 EGDX 140350Z AUTO 26025G35KT 2500 RA BKN004/// BKN013/// 08/08 Q1008 RA W (260°) 28.8mph 40.3mph 8°C 8°C
14/03/19 02:50 EGDX 140250Z AUTO 26026G38KT 2700 RA BKN009/// BKN032/// 08/07 Q1010 RA W (260°) 29.9mph 43.7mph 8°C 7°C
14/03/19 01:50 EGDX 140150Z AUTO 26022KT 9000 RA BKN016/// SCT036/// 08/07 Q1011 RA W (260°) 25.3mph 8°C 7°C
14/03/19 00:50 EGDX 140050Z AUTO 26019KT 3200 RA FEW009/// BKN028/// 08/07 Q1012 RA W (260°) 21.9mph 8°C 7°C
13/03/19 23:50 EGDX 132350Z AUTO 27018KT 9000 -RA FEW038/// BKN050/// 08/07 Q1013 -RA W (270°) 20.7mph 8°C 7°C
13/03/19 22:50 EGDX 132250Z AUTO 27016KT 9999 SCT035/// BKN050/// 08/06 Q1014 W (270°) 18.4mph 8°C 6°C
13/03/19 21:50 EGDX 132150Z AUTO 27016KT 9999 FEW029/// BKN035/// 08/06 Q1015 W (270°) 18.4mph 8°C 6°C